FULL MOON RUN-5km le 08/04/2017

Recherche par Dossard : par Nom : par Club :

Place Dossard Nom Prenom Cat. Pl. Cat. Temps Club Sexe
1 441 LANQUETIN Damien SE 1 00:17:19 M
2 549 VARSOVIE Jimmy SE 2 00:17:23 M
3 510 GELLYNCK Fabrice SE 3 00:17:44 M
4 461 COUTY ƒric SE 4 00:17:56 M
5 531 SAINVILLE FRANCIS SE 5 00:18:21 M
6 595 DEROND Charles SE 6 00:18:24 M
7 453 BLACODON Manuel SE 7 00:18:56 M
8 347 DOURE Yannick SE 8 00:19:02 M
9 458 DALIN DAVY SE 9 00:19:12 M
10 543 CARDA Jean Baptiste SE 10 00:19:20 M
11 443 GIACOMETTI mike JU 1 00:19:26 M
12 100 AUGUSTE CHARLERY Audrey Mickael SE 11 00:19:26 M
13 471 BORVAL Joel SE 12 00:19:46 M
14 483 NIRDƒ Jean noel SE 13 00:19:48 M
15 482 JOACHIM Jean Yves SE 14 00:20:05 M
16 631 ?Dossard #631 SE 15 00:20:08 M
17 576 ?Dossard #576 SE 16 00:20:08 M
18 474 BOULANGE Jean Christophe SE 17 00:20:17 M
19 300 PRIAN CŽcile V1 1 00:20:20 F
20 512 JONATHAN DIBANDI SE 18 00:20:50 M
21 26 CARON Gwenaelle SE 1 00:21:03 F
22 446 BALTIDE ERIC V2 1 00:21:05 M
23 527 CROUZIL Fabrice SE 19 00:21:15 M
24 528 CHOLVIN thŽo MI 1 00:21:17 M
25 517 DERVAIN Bruno SE 20 00:21:21 M
26 27 LAFONTAINE Marilyn SE 21 00:21:23 M
27 103 MONTOUT Christine V1 2 00:21:25 F
28 119 MARIE SAINTE Marcel SE 22 00:21:37 M
29 536 RENEAUME Franois V1 1 00:21:45 M
30 485 JOSEPH AUGUSTE David SE 23 00:21:48 M
31 580 SALINIERE Jean Roger V1 2 00:22:22 M
32 519 FELVIA Sebastien SE 24 00:22:26 M
33 610 ANGELE Cratere SE 2 00:22:28 F
34 477 MORAND JosŽ SE 25 00:22:28 M
35 370 GROS DESORMEAUX Sandrine V1 3 00:22:47 F
36 534 SYLVESTRE HervŽ SE 26 00:22:51 M
37 202 VARISOT Jessica V1 4 00:22:54 F
38 525 LABONNE Jean Louis SE 27 00:23:14 M
39 518 PERIA CADIGNAN Christian SE 28 00:23:19 M
40 532 RECHOU Samuel V1 3 00:23:22 M
41 99 MARLIN RETOUR VALERIE SE 3 00:23:25 F
42 383 MANGIN Nathalie SE 4 00:23:31 F
43 5 ANGEVIN Annick V1 5 00:23:33 F
44 472 DUVERGER Livio SE 29 00:23:43 M
45 470 VENGETO Bernard SE 30 00:23:49 M
46 444 GIACOMETTI jacques V3 1 00:23:56 M
47 354 SYLVESTRE Yasmine SE 5 00:24:01 F
48 625 FRANCOIS AUGRAIN SE 6 00:24:07 F
49 504 COQ Cedric SE 31 00:24:08 M
50 97 ROSE ROSETTE Marie Noelle SE 7 00:24:08 F
51 511 STEEVE RAPINIER SE 32 00:24:12 M
52 387 KOURY Irina SE 8 00:24:19 F
53 60 LAVELLE charlene SE 9 00:24:27 F
54 65 COHET Anne laure SE 10 00:24:27 F
55 205 PALCY PAVAD Nathalie SE 11 00:24:30 F
56 463 HUBERVIC Sylvain SE 33 00:24:34 M
57 450 PERSAUD Gerald V1 4 00:24:37 M
58 448 RAUMEL Richard V2 2 00:24:37 M
59 425 RACON DA COSTA Maria V1 6 00:24:37 F
60 346 AUGUSTE CHARLERY Arielle SE 12 00:24:40 F
61 194 BRUNO BŽatrice SE 13 00:24:45 F
62 502 VERNES Gilles SE 34 00:24:46 M
63 632 ?Dossard #632 SE 35 00:24:51 M
64 96 FLECHON Ingrid V1 7 00:24:54 F
65 74 MELEZAN Peggy SE 14 00:24:55 F
66 447 LACLEF Olivier V1 5 00:24:56 M
67 108 PARFAIT Ludivine SE 15 00:24:57 F
68 599 SIGWART Sylvain SE 36 00:24:57 M
69 596 MELLERIN Julien SE 37 00:24:57 M
70 113 CERLAND Nathalie SE 16 00:25:05 F
71 442 GROSSEPIECE Ulysse SE 38 00:25:05 M
72 635 ?Dossard #635 SE 39 00:25:11 M
73 542 COLIN Paul SE 40 00:25:11 M
74 608 LEBEAU Baptiste SE 41 00:25:18 M
75 607 LEBEAU Marius SE 17 00:25:20 F
76 172 VIRTOS Wudy SE 18 00:25:26 F
77 382 ALBA BLANCHARD Francine V1 8 00:25:29 F
78 199 GORAM Suzy SE 19 00:25:31 F
79 331 ROCHE Beryl SE 20 00:25:32 F
80 173 TROBRILLANT Karine SE 21 00:25:37 F
81 157 LABARDE Ketty SE 22 00:25:42 F
82 529 HODEBOURG Marc Edouard SE 42 00:25:44 M
83 624 JALTA Mathieu SE 43 00:25:50 M
84 546 JEAN GILLES Thierry SE 44 00:25:51 M
85 222 NELSON bŽatrice SE 23 00:25:55 F
86 456 ASSELIN DE BEAUVILLE Axel SE 45 00:25:56 M
87 129 ABATI Catherine V1 9 00:25:59 F
88 526 MORJON David SE 46 00:26:02 M
89 296 CORDROC H Claire SE 24 00:26:03 F
90 297 ELISE Caignec SE 25 00:26:03 F
91 597 MARCHAL Ronald SE 47 00:26:04 M
92 467 PRIAM Suarez V1 6 00:26:13 M
93 75 MELEZAN Kathy SE 26 00:26:13 F
94 408 FOFANA Alexandra SE 27 00:26:14 F
95 231 LE PIOLET Bleuenn SE 28 00:26:15 F
96 304 FOFANA M mah SE 29 00:26:17 F
97 166 CUCHEVAL Sandrine V1 10 00:26:18 F
98 294 BILAS Laurence SE 30 00:26:18 F
99 150 ALINE Nadine SE 31 00:26:18 F
100 138 BELLIARD Claudine SE 32 00:26:20 F
101 83 CHAMIOT MARION SE 33 00:26:22 F
102 452 BEAUSOLEIL PATRICE V1 7 00:26:22 M
103 196 ARMEDE Liliane SE 34 00:26:26 F
104 111 LAMARIGNERE Mathilde SE 35 00:26:27 F
105 398 DE REYNAL Amandine SE 36 00:26:27 F
106 390 ROUSSEAU Sandie SE 37 00:26:28 F
107 552 TATLOT Gregory SE 48 00:26:38 M
108 257 TORO ELISE SE 38 00:26:38 F
109 200 NICOLAS Francette SE 39 00:26:44 F
110 551 ?Dossard #551 SE 49 00:26:45 M
111 240 GACHIE Eva SE 40 00:26:54 F
112 323 ERTZBISCHOFF Corinne SE 41 00:26:57 F
113 605 OLLIVIER LAMARQ Fanny SE 42 00:26:58 F
114 329 PINOS GŽraldine SE 43 00:26:59 F
115 548 SUEZ PANAMA Eric SE 50 00:27:03 M
116 492 GRAINE StŽphane SE 51 00:27:08 M
117 274 LERIA Astrid SE 44 00:27:11 F
118 333 BLAMEBLE Katia V1 11 00:27:12 F
119 19 RAMANICK Jessica SE 45 00:27:19 F
120 272 GUITTEAUD Audrey SE 46 00:27:19 F
121 372 CHARLERY Sonia V1 12 00:27:20 F
122 563 MITRAIL Mathieu SE 52 00:27:26 M
123 578 CHABRIER Annie V3 1 00:27:32 F
124 54 LITADIER Mad Colette V2 1 00:27:32 F
125 521 CRATER Nicolas SE 53 00:27:35 M
126 401 DE LA HOUSSAYE Coralie SE 47 00:27:35 F
127 73 EUGÉNE annie SE 48 00:27:42 F
128 181 DONDON HŽlne SE 49 00:27:48 F
129 209 NOEMI Sandrine V1 13 00:27:49 F
130 44 ANTONIO Jessica SE 50 00:27:52 F
131 198 LERIA BŽatrice V1 14 00:27:57 F
132 380 LESIEUR FANNY SE 51 00:27:59 F
133 462 LESUEUR Ralph SE 54 00:28:02 M
134 573 CRIQUET Stephanie SE 52 00:28:03 F
135 547 MALOUINES Loďc SE 55 00:28:08 M
136 227 GRANVILLE Marie Noelle SE 53 00:28:18 F
137 226 BERING Manuella SE 54 00:28:18 F
138 400 MONCI Franceline SE 55 00:28:20 F
139 440 GALAP Julien SE 56 00:28:23 M
140 457 SOREL Mickael SE 57 00:28:25 M
141 523 SIVATE Johan SE 58 00:28:26 M
142 465 CAZENEUVE PHILIPPE V3 2 00:28:28 M
143 286 CADASSE claude SE 56 00:28:29 F
144 305 SAINT JUST CELINE SE 57 00:28:32 F
145 43 CLIO LYDIA SE 58 00:28:34 F
146 617 ARNAUD ST MARTIN Pascale Birba SE 59 00:28:35 F
147 233 GABRIEL Evelyne SE 60 00:28:38 F
148 143 BERNARD Isabelle SE 61 00:28:39 F
149 513 JEAN GILLES Herve V1 8 00:28:45 M
150 261 RANGUIN Raissa V2 2 00:28:45 F
151 650 PASTEL GRAPINDOR Laura SE 62 00:28:49 F
152 81 PUJAR Adčle SE 63 00:28:50 F
153 212 CORIC Delphine SE 64 00:28:52 F
154 514 GROSPERRIN GUY V2 3 00:28:53 M
155 130 CIRILLE BEATRICE SE 65 00:28:56 F
156 155 HENRY Samantha SE 66 00:28:57 F
157 606 LEBEAU Sandrine SE 67 00:28:59 F
158 540 BAUD Marion SE 68 00:29:09 F
159 541 GERMAIN Pierre SE 59 00:29:11 M
160 533 MANGIN Marc V2 4 00:29:13 M
161 279 LENERAND Marjolaine SE 69 00:29:13 F
162 399 GAUTHIER jessica SE 70 00:29:18 F
163 215 BUISSON Marie SE 71 00:29:18 F
164 211 ROSE Catherine V1 15 00:29:20 F
165 628 HARDOROCK Remi SE 60 00:29:21 M
166 491 DE REYNAL Philippe SE 61 00:29:21 M
167 58 VITALIS Isabelle SE 72 00:29:32 F
168 77 MAXIMIN TARTARE Kisshama SE 73 00:29:34 F
169 76 COCAULT Emilie SE 74 00:29:37 F
170 78 OUEMBA Aurelie SE 75 00:29:38 F
171 45 ANTONIO Evelyne V3 2 00:29:39 F
172 105 EURANIE Audrey SE 76 00:29:41 F
173 114 LEOTURE lara V1 16 00:29:41 F
174 360 LABONNE Louise SE 77 00:29:42 F
175 281 LITADIER/VILLET Laura SE 78 00:29:43 F
176 185 CERETUS Tatiana SE 79 00:29:44 F
177 627 WENG LAW AndrŽ V1 9 00:29:45 M
178 197 LERIA Sylvianne SE 80 00:29:45 F
179 244 MONAR Muriel SE 81 00:29:45 F
180 243 ANNIN Véronique SE 82 00:29:45 F
181 535 BELFAN Eddy Franois SE 62 00:29:49 M
182 269 LEVY Betty V2 3 00:29:49 F
183 4 GIRIER DUFOURNIER Alicia SE 83 00:29:50 F
184 609 LEBEAU Jean Michel SE 63 00:29:53 M
185 159 RAVEL tiffany SE 84 00:29:55 F
186 82 PUJAR Amélie SE 85 00:29:59 F
187 392 BOUILLOT tifany SE 86 00:30:00 F
188 268 FRONTIER Diandra SE 87 00:30:12 F
189 275 DISPAGNE Gregory SE 64 00:30:12 M
190 142 BIGOT maryse SE 88 00:30:13 F
191 298 DELYON Chantal SE 89 00:30:16 F
192 379 VELASQUES Karina V1 17 00:30:35 F
193 164 SORBON Annie SE 90 00:30:36 F
194 342 FRANCOIS Ruth SE 91 00:30:39 F
195 524 FRANCOIS Miguel SE 65 00:30:39 M
196 223 ZEEGERS CŽline SE 92 00:30:42 F
197 500 GUIRAUTE guillaume lucien SE 66 00:30:49 M
198 498 DESCAMPS RŽgis V1 10 00:30:50 M
199 499 BOISTARD julien SE 67 00:30:50 M
200 228 BOISTARD aurelie SE 93 00:30:50 F
201 229 LECLAIRE laetitia SE 94 00:30:50 F
202 579 GEORGES nicolas SE 68 00:30:50 M
203 210 DELIN Lydia SE 95 00:30:50 F
204 537 DROIN Simon SE 69 00:30:52 M
205 146 CLUZEL Chrystel V1 18 00:30:54 F
206 602 SOLBIAC Celia SE 96 00:30:56 F
207 292 AZUR LŽa SE 97 00:30:57 F
208 509 ASSIER DE POMPIGNAN Rapha‘l V1 11 00:30:58 M
209 475 DOYEN Rudy SE 70 00:30:59 M
210 373 MARIE NELLY Nadine SE 98 00:30:59 F
211 79 ALINE johann V1 19 00:31:03 F
212 374 SACAMA ISIDORE Tania SE 99 00:31:04 F
213 397 BOSTON Vanessa SE 100 00:31:09 F
214 649 ?Dossard #649 SE 71 00:31:12 M
215 63 SULTY SABRINA SE 101 00:31:23 F
216 39 CHEVALLET Delphine V1 20 00:31:24 F
217 404 SAINT LOUIS AUGUSTIN Wassia SE 102 00:31:25 F
218 195 ADRUBAL Alcess SE 103 00:31:25 F
219 495 VILDEUIL Franck V1 12 00:31:27 M
220 36 LEONIDAS Marie pierre SE 104 00:31:31 F
221 284 ALCINDOR Eliane V2 4 00:31:31 F
222 219 VOYER JUNKERE Brigitte V1 21 00:31:32 F
223 326 GABET sandrine SE 105 00:31:34 F
224 410 BERTINER Beatrice SE 106 00:31:34 F
225 299 MERAUT Dominique V2 5 00:31:44 F
226 330 JOACHIM Audrey SE 107 00:31:48 F
227 149 PATOLE Yasmina SE 108 00:31:49 F
228 256 MICHELLE BEAUBRUN SE 109 00:31:53 F
229 362 ARDES Catherine V1 22 00:31:55 F
230 232 BARATINY Sabine V1 23 00:32:01 F
231 238 TESORIERE Julie SE 110 00:32:02 F
232 24 MONGIN Margarette SE 111 00:32:07 F
233 140 BOULANGE Astrid SE 112 00:32:09 F
234 306 DIONY PERIA OphŽlie SE 113 00:32:13 F
235 86 SELOI CORINNE V1 24 00:32:14 F
236 572 ELISABETH Joelle SE 114 00:32:15 F
237 332 MAILLET Sylvie V1 25 00:32:20 F
238 522 MAILLET Eric V2 5 00:32:20 M
239 40 CORALIE Odile V1 26 00:32:20 F
240 378 BEGUE Agns SE 115 00:32:20 F
241 353 GUERIN Elise V1 27 00:32:20 F
242 160 BERTAILLES alexandra SE 116 00:32:21 F
243 276 DOMINIQUE CAGE SE 117 00:32:27 F
244 285 MANGO Oldina SE 118 00:32:30 F
245 337 DISER Jessica SE 119 00:32:31 F
246 593 KHORCHI Hinda SE 120 00:32:32 F
247 594 PANCALDI Floriane SE 121 00:32:34 F
248 309 CAMIUL Katiana SE 122 00:32:36 F
249 247 MEDEUF Jonhel SE 123 00:32:36 F
250 116 SANTE ROSE MARIE SAINTE Clairette SE 124 00:32:37 F
251 133 DACLINAT Virginie SE 125 00:32:37 F
252 183 VOLBERG Muriane SE 126 00:32:39 F
253 182 WAYA Nicky SE 127 00:32:39 F
254 490 ZAMBOU Jean Christophe V1 13 00:32:40 M
255 187 CLAUDE Fabienne V1 28 00:32:40 F
256 161 PEPELLIN Marilyn V1 29 00:32:41 F
257 48 COURLA Sylvie V2 6 00:32:44 F
258 571 Kethlyne SE 128 00:32:45 F
259 67 EUDARIC Claude SE 129 00:32:48 F
260 445 BOCHAIN Bruno SE 72 00:32:48 M
261 421 PHALIPPOU Laura SE 130 00:32:55 F
262 388 DROIN HELAN ValŽrie SE 131 00:33:06 F
263 91 GAMBIE Lisa SE 132 00:33:09 F
264 539 PIQUEUR Samuel ES 1 00:33:09 M
265 393 LECLERE Eva JU 1 00:33:09 F
266 123 BRULU Lucette SE 133 00:33:11 F
267 167 JOSEPH AUGUSTE VŽronique SE 134 00:33:13 F
268 577 MYRIAM Joseph SE 135 00:33:13 F
269 264 BERNARD VŽronique V1 30 00:33:13 F
270 11 ABON Carole V1 31 00:33:21 F
271 80 JACQUES Laurine SE 136 00:33:23 F
272 127 DELLON Lydie anne SE 137 00:33:23 F
273 395 COLOTTE Laure SE 138 00:33:24 F
274 307 KUHRY Cindy SE 139 00:33:25 F
275 18 MOUTAMA Ingrid SE 140 00:33:25 F
276 176 MACHADO Maria SE 141 00:33:26 F
277 334 SULLY BENEDICTE SE 142 00:33:28 F
278 189 MONRAPHA Jessica SE 143 00:33:30 F
279 17 JEAN NOEL Gwenaelle SE 144 00:33:30 F
280 51 LITADIER Klarys SE 145 00:33:30 F
281 506 LE MAURICE kevin SE 73 00:33:32 M
282 22 ROUGANIOU lucie SE 146 00:33:32 F
283 21 PLASSARD christelle SE 147 00:33:32 F
284 505 CHAUVET yohan SE 74 00:33:32 M
285 507 LOZANO philippe SE 75 00:33:34 M
286 361 YUNG YUM KOUAI Jessie SE 148 00:33:38 F
287 188 MERINE Lauriane SE 149 00:33:48 F
288 459 ETIENNE NOTTE Yannick SE 76 00:33:57 M
289 582 POGNON Coralie SE 150 00:33:58 F
290 55 PHALANSTERE BEATRICE V1 32 00:33:58 F
291 88 ETIENNE JESSICA SE 151 00:34:00 F
292 241 OLINY Marielle SE 152 00:34:01 F
293 201 ?Dossard #201 SE 77 00:34:01 M
294 315 BLAISE Colette SE 153 00:34:03 F
295 550 BRELEUR Dominique SE 154 00:34:03 F
296 568 MIRE Denise SE 155 00:34:03 F
297 478 URSULET Ludovic SE 78 00:34:04 M
298 52 AVRILA NADIEGE V1 33 00:34:04 F
299 265 BAZIN Sophie SE 156 00:34:05 F
300 53 MARTHELY ODILE V1 34 00:34:07 F
301 163 ARNAUD Marina SE 157 00:34:08 F
302 479 MARLU Gilbert SE 79 00:34:09 M
303 158 LUTBERT BERGOZ Laura SE 158 00:34:10 F
304 371 SAINT AIME Christine V2 7 00:34:27 F
305 365 FILIN Patricia AimŽe V1 35 00:34:31 F
306 85 CAPOUL MARIE RAPHAELLE V2 8 00:34:34 F
307 131 VERRES Laurianne SE 159 00:34:36 F
308 62 RAGOO Marietta SE 160 00:34:43 F
309 213 TREBEAU Claudia SE 161 00:34:43 F
310 214 STEPHANIE ragot SE 162 00:34:52 F
311 15 MELINARD Nathalie V1 36 00:34:53 F
312 221 LARDENOIS CAPTANT Audrey SE 163 00:34:54 F
313 476 DEGRAS Jocelyn SE 80 00:34:54 M
314 190 PILOTIN BŽatrice SE 164 00:34:55 F
315 358 AZEAU karine V1 37 00:34:55 F
316 23 PAVILLA Lilia SE 165 00:34:59 F
317 604 CHARLES Else SE 166 00:34:59 F
318 112 DORBY Lauretta SE 167 00:35:04 F
319 251 CONFIANT Celia SE 168 00:35:19 F
320 496 BRUNO Frederic SE 81 00:35:19 M
321 282 GUSTAVE Nathalie SE 169 00:35:22 F
322 56 RIDARCH CECILE V1 38 00:35:24 F
323 560 MERLINI Olivier SE 82 00:35:25 M
324 135 QUERBEL Prisca SE 170 00:35:29 F
325 355 MAREM Sandra V1 39 00:35:29 F
326 335 SIRMON CHRISTINE SE 171 00:35:30 F
327 363 DHISSI Alberte Franoise V2 9 00:35:32 F
328 237 RENE CORAIL Elsa SE 172 00:35:34 F
329 248 ORMILE Christine SE 173 00:35:38 F
330 396 VENGETO FrŽdŽrick SE 174 00:35:39 F
331 364 VALIAME Damaly SE 175 00:35:49 F
332 416 GUY Clariise SE 176 00:35:50 F
333 411 BAPTE Stéphanie SE 177 00:35:50 F
334 419 MAYEN Chantal SE 178 00:35:51 F
335 484 SUFRIN CARL PHILIP SE 83 00:35:51 M
336 405 LALLEMENT Beatrice SE 179 00:35:53 F
337 278 LEPARLIER Sabrina SE 180 00:36:01 F
338 603 SOLBIAC Patricia SE 181 00:36:04 F
339 37 VONIG YVONNE Guiout V2 10 00:36:09 F
340 236 DIJON Marie Laure SE 182 00:36:10 F
341 32 FLORENTINY ghislaine SE 183 00:36:10 F
342 162 SUFRIN ELODIE SE 184 00:36:18 F
343 245 BROIE Marion SE 185 00:36:24 F
344 320 BARON Olivia SE 186 00:36:25 F
345 486 ALEXANDRE Félix SE 84 00:36:33 M
346 191 MARIE LAURE AUDEL V2 11 00:36:35 F
347 59 PAUPIN MARGUERITE SE 187 00:36:42 F
348 339 DALIN CŽlia V1 40 00:36:42 F
349 33 SYRVEL JEAN LOUIS Maeva SE 188 00:36:42 F
350 31 EMMANUEL EMILE Leslie SE 189 00:36:43 F
351 230 TERMON SŽverine SE 190 00:36:44 F
352 171 RENE CORAIL Danielle SE 191 00:36:47 F
353 633 ?Dossard #633 SE 85 00:36:52 M
354 359 DUQUESNAY Nathalie V2 12 00:36:52 F
355 14 BOROME Yvelise SE 192 00:36:54 F
356 132 VERRES BŽatrix V1 41 00:36:54 F
357 29 MARINA LEOPOLD SE 193 00:37:00 F
358 558 LOF Daniela SE 194 00:37:01 F
359 451 CHEMIR Rodolphe SE 86 00:37:01 M
360 30 RENY LOWISKI SE 195 00:37:04 F
361 591 VITELLUS Christophe SE 87 00:37:05 M
362 254 CHAVIGNY DE LACHEVROTIÉRE Carine SE 196 00:37:15 F
363 619 MONIER Elodie SE 197 00:37:15 F
364 460 CACLIN Joseph V3 3 00:37:19 M
365 98 CACLIN Audrey SE 198 00:37:19 F
366 68 CHANTOIS Pascaline SE 199 00:37:27 F
367 618 DABON Nataly SE 200 00:37:28 F
368 621 DUCLOVEL Corinne SE 201 00:37:29 F
369 107 OZIER LAFONTAINE Nathalie SE 202 00:37:31 F
370 70 FRANCISQUE GŽraldine SE 203 00:37:32 F
371 224 GLADYS LUATH SE 204 00:37:32 F
372 581 ?Dossard #581 SE 88 00:37:34 M
373 69 ROMER Glawdys SE 205 00:37:35 F
374 7 CAPGRAS Daniel SE 89 00:37:49 M
375 553 CAPGRAS Eric SE 90 00:37:50 M
376 141 ZAIRE StŽphanie SE 206 00:37:54 F
377 92 CHERY katryn SE 207 00:37:55 F
378 218 DELIN Sylvia V1 42 00:37:58 F
379 424 PENTIER Anne sophie SE 208 00:37:59 F
380 423 ROLLE Francisca SE 209 00:37:59 F
381 120 LIMERY Marthe SE 210 00:38:03 F
382 239 RAFFIN Sylvie SE 211 00:38:06 F
383 402 BEAUSEJOUR Adeline SE 212 00:38:06 F
384 321 TERMON Colette SE 213 00:38:09 F
385 204 COURLA Marguerite SE 214 00:38:10 F
386 325 GRANVILLE Marie france V1 43 00:38:10 F
387 47 CAYROU Jacqueline V2 13 00:38:10 F
388 327 ARMEDE Clarisse SE 215 00:38:11 F
389 464 MAVAMBU KANGA Pascal SE 91 00:38:16 M
390 422 POLYTE Christelle SE 216 00:38:18 F
391 413 CHEMIN Cathalen SE 217 00:38:18 F
392 308 PASBEAU LŽlia SE 218 00:38:24 F
393 384 DURMARQUE Floriane SE 219 00:38:26 F
394 253 MARIE OLIVE line SE 220 00:38:26 F
395 117 RAPON Mireille SE 221 00:38:28 F
396 50 LITADIER Monique SE 222 00:38:38 F
397 49 LITADIER Micheline SE 223 00:38:39 F
398 565 LECEFEL Gaeti SE 92 00:38:59 M
399 385 MEUNIER Cindy SE 224 00:39:00 F
400 386 ARNOULT Laetitia V1 44 00:39:01 F
401 394 MASSON delphine V1 45 00:39:05 F
402 90 THEOTISTE SEJEAN Cathy SE 225 00:39:05 F
403 415 GASPARD Dominique SE 226 00:39:10 F
404 139 MILOME GŽraldine SE 227 00:39:15 F
405 487 CINNA Max V1 14 00:39:16 M
406 622 EPHESTION Ketty SE 228 00:39:20 F
407 118 MICHOLET Corinne V1 46 00:39:50 F
408 277 LAETICIA MANSUELA SE 229 00:40:04 F
409 630 THEODOSE Guylčne V2 14 00:40:10 F
410 414 SUEZ PANAMA Yvonette SE 230 00:40:11 F
411 273 RAVIER Emma V1 47 00:40:18 F
412 258 MANUELA VENDOME SE 231 00:40:26 F
413 350 TIRAULT Graziella V1 48 00:40:28 F
414 46 NOMEL Laeticia SE 232 00:40:28 F
415 246 LE BARS Christine V2 15 00:40:41 F
416 616 BELMO Cynthia SE 233 00:40:46 F
417 623 LEOPOLDIE Patrice SE 234 00:40:46 F
418 590 ADELE Anne Laure SE 235 00:41:01 F
419 592 ARIMAN Valérie SE 236 00:41:04 F
420 449 SILBANDE Yvan SE 93 00:41:04 M
421 420 PERCIN Nicole SE 237 00:41:05 F
422 66 DONDON adeline SE 238 00:41:06 F
423 110 MILNIS Noelle SE 239 00:41:07 F
424 381 PALCY Frantz SE 94 00:41:07 M
425 115 LERIA Anne Sophie SE 240 00:41:10 F
426 122 PIDERY ValŽrie SE 241 00:41:11 F
427 356 BLANCHET stephanie V1 49 00:41:11 F
428 357 THALMENSY Dahnia SE 242 00:41:11 F
429 28 INSOU BŽatrice SE 243 00:41:11 F
430 343 UNN TOC Erika SE 244 00:41:30 F
431 235 BOULARD Brigitte V1 50 00:41:30 F
432 313 JEAN LOUIS gladys SE 245 00:41:58 F
433 368 KHUONG Severine SE 246 00:41:58 F
434 367 SAVELLI fanny SE 247 00:41:58 F
435 611 BECHET Clarisse SE 248 00:42:06 F
436 134 VOYER Karine SE 249 00:42:07 F
437 106 DOMERGUE Ketty SE 250 00:42:13 F
438 570 EDRAGAS Caroline V1 51 00:42:16 F
439 501 CADASSE Kemuel SE 95 00:42:21 M
440 417 GUY Claudia SE 251 00:42:29 F
441 121 ELIAZORD Arlette SE 252 00:42:31 F
442 250 RANGOLY Jill SE 253 00:42:31 F
443 301 TERRINE Gaby SE 254 00:42:32 F
444 303 FRANCOIS Katy V1 52 00:42:33 F
445 302 NADIR Nathalie V1 53 00:42:33 F
446 217 ARDENNE Mirianne SE 255 00:42:34 F
447 344 ROCHE Christelle SE 256 00:42:40 F
448 377 MONNELY Audrey SE 257 00:42:41 F
449 311 CADET MARTHE GAELLE SE 258 00:42:44 F
450 124 NERO SYLVIANE SE 259 00:42:46 F
451 125 CAPUT VICTOIRE URSULA SE 260 00:42:47 F
452 93 HALMEL LAFFINE Christelle SE 261 00:42:47 F
453 109 VALENTE Christine SE 262 00:42:50 F
454 25 ANGƒLIQUE Marie Dominique SE 263 00:42:50 F
455 137 YTOURNEL Eva EA 1 00:43:04 F
456 136 YTOURNEL Julie SE 264 00:43:09 F
457 3 TISSOT Ketty V1 54 00:43:31 F
458 20 ESSART Rose Evelyne SE 265 00:43:31 F
459 288 DUCARME Berengere SE 266 00:43:40 F
460 516 JUSTE David SE 96 00:43:40 M
461 169 MANOIR Marie CŽline SE 267 00:43:41 F
462 152 QUEMIN Lauriane SE 268 00:43:46 F
463 151 AUMIS Patricia SE 269 00:43:49 F
464 170 AZER Nathalie SE 270 00:43:50 F
465 71 MONTLOUIS StŽphanie SE 271 00:43:54 F
466 72 TROUDART CŽcilia SE 272 00:43:54 F
467 94 SOREL Audrey SE 273 00:43:57 F
468 389 BARBERET CARRARO Angelique V1 55 00:44:02 F
469 128 TAYALAY Cyndra SE 274 00:44:02 F
470 312 CLOTAIL STELLY SE 275 00:44:07 F
471 317 SOUTARSON Marie Audrey SE 276 00:44:54 F
472 351 VOVOL Carinne SE 277 00:44:55 F
473 349 TRABOT Roberte V3 3 00:44:56 F
474 104 CALCUL Celine SE 278 00:44:57 F
475 629 CLAIRE Georges SE 97 00:44:57 M
476 57 BAKER Rita SE 279 00:45:49 F
477 220 JEABERT Karine SE 280 00:45:53 F
478 262 HALLER melanie SE 281 00:45:55 F
479 263 ERIMEE sandrine SE 282 00:45:55 F
480 193 SYLVESTRE Sandrine SE 283 00:45:59 F
481 192 HARPIN maya SE 284 00:45:59 F
482 186 PIERRE LOUIS Frederique SE 285 00:45:59 F
483 574 TRABOT Clarisse SE 286 00:46:25 F
484 348 VOVOL Flora V2 16 00:46:34 F
485 126 VIEUVEL Nancy SE 287 00:47:04 F
486 61 FLAMAND Danielle SE 288 00:47:57 F
487 376 FEVAL mally V1 56 00:48:04 F
488 375 VINCENT SULLY Joelle SE 289 00:48:04 F
489 316 SƒVƒLE Aurelie SE 290 00:48:08 F
490 216 MIRANDE NEY Josette SE 291 00:48:12 F
491 600 MARNY Katie SE 292 00:48:48 F
492 148 HYRONIMUS Geraldine V1 57 00:49:17 F
493 147 MARINE Marie Lyne SE 293 00:49:17 F
494 249 RIOUAL Erika SE 294 00:49:17 F
495 255 BIRBA CŽline SE 295 00:49:17 F
496 295 PRIAM Johanne SE 296 00:51:05 F
497 556 PRIAM Gilles SE 98 00:51:05 M
498 35 JEAN BAPTISTE YOLAINE SE 297 00:52:19 F
499 34 JEAN BAPTISTE LEILA SE 298 00:52:19 F
500 165 GUEDON Rachel SE 299 00:52:27 F
501 38 MELINARD Quincy SE 300 00:52:28 F
502 252 RENE Elvina SE 301 00:52:28 F
503 575 RINTO Patricia V1 58 00:56:42 F
504 620 MALA Murielle SE 302 00:56:43 F
505 102 CHARLES ALFRED CŽline SE 303 00:58:23 F
506 101 PAOLA ValŽry SE 304 00:58:23 F
507 178 ELANA Valerie V1 59 00:58:42 F
508 626 CHARREF Youcef SE 99 00:58:42 M
509 175 JEAN BOLO Ghislaine SE 305 00:58:42 F
510 179 ELANA Audrey SE 306 00:58:43 F
511 84 DELERAY Christiane SE 307 00:58:46 F
512 406 LALLEMENT Alexandra SE 308 00:58:47 F
513 174 RENE CORAIL VALLERAY Evelyne SE 309 00:58:47 F
514 544 DONDON Frederick SE 100 00:59:02 M
515 488 MADELBAUT Miguel SE 101 00:59:03 M